Time;durP1;ratioP1;P1;durP2;ratioP2;P2;SDS_P1;SDS_P2;PMS_P1;PMS_P2;Temp;Humidity;BMP_temperature;BMP_pressure;BME280_temperature;BME280_humidity;BME280_pressure;Samples;Min_cycle;Max_cycle;Signal;HPM_P1;HPM_P2
2022/03/01 00:01:40;;;;;;;34.43;17.53;;;1.90;60.50;;;;;;5054686;28;20219;-69
2022/03/01 00:04:07;;;;;;;37.80;17.23;;;1.90;60.60;;;;;;5057384;28;20205;-69
2022/03/01 00:06:34;;;;;;;30.40;17.30;;;1.90;60.70;;;;;;5048885;28;20289;-70
2022/03/01 00:09:01;;;;;;;28.83;17.07;;;1.90;60.80;;;;;;5053597;28;20289;-70
2022/03/01 00:11:27;;;;;;;31.30;16.57;;;1.90;60.70;;;;;;5058590;28;20626;-69
2022/03/01 00:13:54;;;;;;;27.93;16.93;;;1.90;60.70;;;;;;5051328;28;20214;-70
2022/03/01 00:16:21;;;;;;;35.47;16.20;;;1.90;60.90;;;;;;5046602;28;20294;-70
2022/03/01 00:18:49;;;;;;;32.47;17.73;;;1.90;61.00;;;;;;5054768;28;20292;-69
2022/03/01 00:21:16;;;;;;;34.70;18.23;;;1.90;61.00;;;;;;5053463;28;20221;-69
2022/03/01 00:23:43;;;;;;;33.60;17.63;;;1.80;60.80;;;;;;5054724;28;20206;-70
2022/03/01 00:26:10;;;;;;;35.20;17.77;;;1.80;61.20;;;;;;5049821;28;20229;-70
2022/03/01 00:28:37;;;;;;;36.97;17.23;;;1.80;61.50;;;;;;5052141;28;20201;-70
2022/03/01 00:31:04;;;;;;;29.20;16.37;;;1.80;61.80;;;;;;5046772;28;20232;-70
2022/03/01 00:33:31;;;;;;;34.47;16.20;;;1.80;61.90;;;;;;5040283;28;20206;-70
2022/03/01 00:36:01;;;;;;;32.33;16.83;;;1.80;62.20;;;;;;5061964;28;20301;-70
2022/03/01 00:38:28;;;;;;;27.30;15.07;;;1.80;62.20;;;;;;5039670;28;20238;-71
2022/03/01 00:40:56;;;;;;;31.57;16.03;;;1.80;62.50;;;;;;5043629;28;20572;-70
2022/03/01 00:43:23;;;;;;;28.53;16.90;;;1.90;63.40;;;;;;5039044;28;20242;-70
2022/03/01 00:45:51;;;;;;;30.40;16.43;;;1.80;62.50;;;;;;5040997;28;20206;-71
2022/03/01 00:48:18;;;;;;;32.53;17.00;;;1.80;62.50;;;;;;5048033;28;20273;-73
2022/03/01 00:50:45;;;;;;;31.93;15.17;;;1.80;62.60;;;;;;5053079;28;20298;-67
2022/03/01 00:53:13;;;;;;;22.67;12.60;;;1.80;62.70;;;;;;5054952;28;20206;-67
2022/03/01 00:55:41;;;;;;;22.07;12.77;;;1.70;62.40;;;;;;5054214;28;20241;-67
2022/03/01 00:58:08;;;;;;;26.20;13.67;;;1.70;62.40;;;;;;5050697;28;20297;-68
2022/03/01 01:00:35;;;;;;;25.47;13.23;;;1.70;63.20;;;;;;5055270;28;20581;-67
2022/03/01 01:03:03;;;;;;;22.13;13.03;;;1.70;62.50;;;;;;5043776;28;20202;-68
2022/03/01 01:05:30;;;;;;;25.67;13.37;;;1.70;62.60;;;;;;5043922;28;20710;-67
2022/03/01 01:07:57;;;;;;;25.07;12.83;;;1.70;62.50;;;;;;5053794;28;20256;-67
2022/03/01 01:10:25;;;;;;;22.77;12.73;;;1.60;62.40;;;;;;5054880;28;20611;-67
2022/03/01 01:12:52;;;;;;;24.77;13.93;;;1.60;62.50;;;;;;5054782;28;20220;-67
2022/03/01 01:15:20;;;;;;;38.20;19.03;;;1.60;62.60;;;;;;5054855;28;20214;-68
2022/03/01 01:17:47;;;;;;;29.77;16.20;;;1.50;62.60;;;;;;5053786;28;20217;-67
2022/03/01 01:20:16;;;;;;;25.23;14.03;;;1.50;62.90;;;;;;5054468;28;20224;-68
2022/03/01 01:22:44;;;;;;;24.17;14.30;;;1.50;63.40;;;;;;5050173;28;20301;-68
2022/03/01 01:25:13;;;;;;;20.97;13.03;;;1.40;63.70;;;;;;5053025;28;20631;-67
2022/03/01 01:27:43;;;;;;;28.67;14.70;;;1.40;64.10;;;;;;5065031;28;20300;-67
2022/03/01 01:30:12;;;;;;;28.67;15.43;;;1.40;64.40;;;;;;5059919;28;20302;-67
2022/03/01 01:32:39;;;;;;;32.23;15.73;;;1.30;64.70;;;;;;5044400;28;20202;-67
2022/03/01 01:35:08;;;;;;;23.50;14.77;;;1.30;65.10;;;;;;5052040;28;20213;-68
2022/03/01 01:37:35;;;;;;;30.17;15.37;;;1.30;65.50;;;;;;5056360;28;20662;-67
2022/03/01 01:40:02;;;;;;;29.20;15.03;;;1.20;65.90;;;;;;5060685;28;20765;-67
2022/03/01 01:42:29;;;;;;;29.77;15.23;;;1.20;66.50;;;;;;5058839;28;20309;-67
2022/03/01 01:44:57;;;;;;;27.43;16.47;;;1.20;66.80;;;;;;5052060;28;20234;-68
2022/03/01 01:47:24;;;;;;;30.07;15.77;;;1.20;67.10;;;;;;5043162;28;20313;-67
2022/03/01 01:49:51;;;;;;;29.27;15.33;;;1.20;67.10;;;;;;5054052;28;20206;-67
2022/03/01 01:52:18;;;;;;;29.20;15.23;;;1.20;67.20;;;;;;5053209;28;20213;-67
2022/03/01 01:54:45;;;;;;;29.30;15.57;;;1.20;67.20;;;;;;5049556;28;20197;-67
2022/03/01 01:57:16;;;;;;;26.83;14.93;;;1.20;67.70;;;;;;5052796;28;20229;-68
2022/03/01 01:59:43;;;;;;;29.70;14.67;;;1.20;68.30;;;;;;5054790;28;20619;-68
2022/03/01 02:02:13;;;;;;;30.00;15.17;;;1.20;68.60;;;;;;5053375;28;20740;-68
2022/03/01 02:04:40;;;;;;;27.03;14.67;;;1.10;68.80;;;;;;5051738;28;20230;-67
2022/03/01 02:07:08;;;;;;;30.50;15.17;;;1.10;69.10;;;;;;5049557;28;20241;-67
2022/03/01 02:09:35;;;;;;;29.77;15.20;;;1.10;69.60;;;;;;5046795;28;20208;-67
2022/03/01 02:12:03;;;;;;;34.87;15.57;;;1.10;69.80;;;;;;5053413;28;20302;-67
2022/03/01 02:14:31;;;;;;;32.87;15.13;;;1.10;70.20;;;;;;5053263;28;20217;-67
2022/03/01 02:16:59;;;;;;;29.67;15.23;;;1.10;70.50;;;;;;5053040;28;20233;-67
2022/03/01 02:19:27;;;;;;;30.00;15.27;;;1.00;70.70;;;;;;5051286;28;20581;-68
2022/03/01 02:21:56;;;;;;;29.63;15.90;;;1.00;71.10;;;;;;5053175;28;20236;-66
2022/03/01 02:24:25;;;;;;;32.77;15.20;;;1.00;71.30;;;;;;5052627;28;20220;-66
2022/03/01 02:26:55;;;;;;;25.47;14.43;;;1.00;71.90;;;;;;5053155;28;20208;-67
2022/03/01 02:29:22;;;;;;;27.93;14.87;;;1.00;72.00;;;;;;5062143;28;20212;-67
2022/03/01 02:31:50;;;;;;;28.60;15.30;;;1.00;72.40;;;;;;5053171;28;20206;-67
2022/03/01 02:34:17;;;;;;;31.27;15.80;;;1.00;72.80;;;;;;5058852;28;20300;-67
2022/03/01 02:36:44;;;;;;;29.57;15.50;;;0.90;73.00;;;;;;5063716;28;20229;-67
2022/03/01 02:39:13;;;;;;;28.43;14.80;;;0.90;73.50;;;;;;5052923;28;20266;-67
2022/03/01 02:41:42;;;;;;;27.27;15.20;;;0.90;73.60;;;;;;5053414;28;20225;-67
2022/03/01 02:44:10;;;;;;;31.60;16.47;;;0.90;73.90;;;;;;5052718;28;20775;-66
2022/03/01 02:46:37;;;;;;;31.90;15.30;;;0.90;74.40;;;;;;5051610;28;20683;-67
2022/03/01 02:49:05;;;;;;;29.73;15.50;;;0.90;74.60;;;;;;5052849;28;20576;-68
2022/03/01 02:51:32;;;;;;;29.23;16.47;;;0.90;75.00;;;;;;5052617;28;20224;-67
2022/03/01 02:53:59;;;;;;;28.80;15.57;;;0.80;75.30;;;;;;5052656;28;20248;-68
2022/03/01 02:56:28;;;;;;;25.30;15.00;;;0.80;75.70;;;;;;5040018;28;20254;-67
2022/03/01 02:58:55;;;;;;;30.33;16.07;;;0.90;76.60;;;;;;5053154;28;20293;-69
2022/03/01 03:01:22;;;;;;;27.77;15.30;;;0.80;76.90;;;;;;5052489;28;20230;-68
2022/03/01 03:03:49;;;;;;;30.83;16.30;;;0.80;77.20;;;;;;5052782;28;20216;-66
2022/03/01 03:06:16;;;;;;;30.43;15.20;;;0.80;77.80;;;;;;5052548;28;20651;-67
2022/03/01 03:08:43;;;;;;;30.60;16.30;;;0.70;78.00;;;;;;5052388;28;20237;-66
2022/03/01 03:11:10;;;;;;;33.07;16.13;;;0.70;78.40;;;;;;5050522;28;20218;-67
2022/03/01 03:13:39;;;;;;;27.63;15.90;;;0.70;79.00;;;;;;5053009;28;20592;-66
2022/03/01 03:16:07;;;;;;;25.87;14.70;;;0.70;79.20;;;;;;5052399;28;20240;-67
2022/03/01 03:18:35;;;;;;;31.23;15.90;;;0.60;79.20;;;;;;5052447;28;20264;-67
2022/03/01 03:21:02;;;;;;;33.10;16.20;;;0.60;79.70;;;;;;5051468;28;20609;-66
2022/03/01 03:23:29;;;;;;;25.73;14.87;;;0.60;80.00;;;;;;5051657;28;20571;-71
2022/03/01 03:25:55;;;;;;;28.57;14.37;;;0.60;80.40;;;;;;5053203;28;20737;-68
2022/03/01 03:28:22;;;;;;;26.50;15.10;;;0.50;80.70;;;;;;5051583;28;20202;-67
2022/03/01 03:30:50;;;;;;;26.23;14.67;;;0.50;81.50;;;;;;5058022;28;20281;-68
2022/03/01 03:33:17;;;;;;;26.20;13.53;;;0.50;81.70;;;;;;5052050;28;20202;-67
2022/03/01 03:35:44;;;;;;;29.90;16.30;;;0.50;82.20;;;;;;5061801;28;20305;-67
2022/03/01 03:38:11;;;;;;;29.40;16.03;;;0.50;82.40;;;;;;5051936;28;20206;-67
2022/03/01 03:40:38;;;;;;;30.70;16.03;;;0.50;82.80;;;;;;5051850;28;20257;-67
2022/03/01 03:43:05;;;;;;;28.50;15.13;;;0.50;83.20;;;;;;5051985;28;20301;-67
2022/03/01 03:45:32;;;;;;;32.57;14.90;;;0.50;83.30;;;;;;5052183;28;20233;-66
2022/03/01 03:48:00;;;;;;;27.13;14.83;;;0.50;83.60;;;;;;5051982;28;20289;-67
2022/03/01 03:50:27;;;;;;;32.93;16.17;;;0.40;83.70;;;;;;5051521;28;20201;-67
2022/03/01 03:52:54;;;;;;;26.07;14.07;;;0.40;84.00;;;;;;5056388;28;20209;-66
2022/03/01 03:55:21;;;;;;;26.30;13.90;;;0.40;84.00;;;;;;5045800;28;20220;-67
2022/03/01 03:57:48;;;;;;;28.00;14.07;;;0.40;84.10;;;;;;5064140;28;20240;-66
2022/03/01 04:00:17;;;;;;;26.70;13.93;;;0.30;84.10;;;;;;5051970;28;20229;-68
2022/03/01 04:02:45;;;;;;;27.67;14.03;;;0.30;84.40;;;;;;5051062;28;20210;-67
2022/03/01 04:05:14;;;;;;;22.37;13.53;;;0.30;84.60;;;;;;5051861;28;20206;-66
2022/03/01 04:07:41;;;;;;;26.60;14.60;;;0.30;84.90;;;;;;5051944;28;20216;-67
2022/03/01 04:10:09;;;;;;;28.13;15.20;;;0.30;85.00;;;;;;5050866;28;20248;-66
2022/03/01 04:12:36;;;;;;;27.47;13.47;;;0.20;85.10;;;;;;5051637;28;20217;-66
2022/03/01 04:15:04;;;;;;;25.13;14.37;;;0.20;85.20;;;;;;5051481;28;20210;-67
2022/03/01 04:17:31;;;;;;;25.80;13.47;;;0.30;85.70;;;;;;5040933;28;20202;-67
2022/03/01 04:19:58;;;;;;;26.20;13.60;;;0.30;85.90;;;;;;5055212;28;20800;-68
2022/03/01 04:22:27;;;;;;;26.67;14.00;;;0.20;86.00;;;;;;5057888;28;20317;-66
2022/03/01 04:24:56;;;;;;;33.53;15.00;;;0.30;86.10;;;;;;5057288;28;20220;-67
2022/03/01 04:27:22;;;;;;;26.00;14.07;;;0.30;86.10;;;;;;5069592;28;20209;-66
2022/03/01 04:29:49;;;;;;;26.07;13.70;;;0.30;86.10;;;;;;5061626;28;20209;-67
2022/03/01 04:32:16;;;;;;;26.63;13.77;;;0.30;86.10;;;;;;5054995;28;20673;-67
2022/03/01 04:34:43;;;;;;;29.53;13.87;;;0.30;86.10;;;;;;5065027;28;20584;-67
2022/03/01 04:37:10;;;;;;;25.00;14.33;;;0.30;86.20;;;;;;5059369;28;20202;-67
2022/03/01 04:39:39;;;;;;;26.30;13.43;;;0.30;86.10;;;;;;5054434;28;20210;-67
2022/03/01 04:42:06;;;;;;;26.60;14.50;;;0.30;86.10;;;;;;5055474;28;20260;-67
2022/03/01 04:44:33;;;;;;;29.27;13.97;;;0.30;86.10;;;;;;5055163;28;20288;-67
2022/03/01 04:47:00;;;;;;;27.97;15.03;;;0.30;86.20;;;;;;5055332;28;20209;-68
2022/03/01 04:49:28;;;;;;;30.50;14.87;;;0.30;86.70;;;;;;5054766;28;20286;-67
2022/03/01 04:51:54;;;;;;;27.77;14.47;;;0.30;86.50;;;;;;5052851;28;20209;-67
2022/03/01 04:54:21;;;;;;;27.83;14.70;;;0.30;86.90;;;;;;5044643;28;20633;-67
2022/03/01 04:56:49;;;;;;;28.70;15.77;;;0.40;87.40;;;;;;5066612;28;20209;-68
2022/03/01 04:59:16;;;;;;;26.63;15.13;;;0.30;87.60;;;;;;5059792;28;20449;-68
2022/03/01 05:01:43;;;;;;;26.17;14.73;;;0.30;88.30;;;;;;5054644;28;20618;-67
2022/03/01 05:04:10;;;;;;;31.20;15.67;;;0.30;87.80;;;;;;5054978;28;20623;-68
2022/03/01 05:06:37;;;;;;;31.67;16.00;;;0.20;87.90;;;;;;5055114;28;20233;-67
2022/03/01 05:09:04;;;;;;;29.87;14.97;;;0.30;88.40;;;;;;5065208;28;20211;-68
2022/03/01 05:11:31;;;;;;;28.47;15.07;;;0.30;88.80;;;;;;5054781;28;20197;-67
2022/03/01 05:14:01;;;;;;;30.13;16.47;;;0.30;89.10;;;;;;5055531;28;20214;-67
2022/03/01 05:16:28;;;;;;;29.47;15.27;;;0.20;89.30;;;;;;5054012;28;20222;-67
2022/03/01 05:18:54;;;;;;;28.43;15.33;;;0.30;89.70;;;;;;5055012;28;20293;-67
2022/03/01 05:21:21;;;;;;;28.70;15.87;;;0.30;90.00;;;;;;5052400;28;20226;-67
2022/03/01 05:23:48;;;;;;;26.50;14.23;;;0.30;89.80;;;;;;5055095;28;20288;-66
2022/03/01 05:26:15;;;;;;;32.77;15.80;;;0.20;89.90;;;;;;5054027;28;20206;-68
2022/03/01 05:28:42;;;;;;;28.40;14.73;;;0.20;90.00;;;;;;5064700;28;20285;-67
2022/03/01 05:31:10;;;;;;;26.60;15.23;;;0.20;90.10;;;;;;5053809;28;20202;-67
2022/03/01 05:33:37;;;;;;;29.33;15.73;;;0.20;90.60;;;;;;5051497;28;20206;-66
2022/03/01 05:36:05;;;;;;;26.03;14.60;;;0.20;90.40;;;;;;5059787;28;20296;-66
2022/03/01 05:38:32;;;;;;;27.90;15.63;;;0.20;90.60;;;;;;5054500;28;20640;-67
2022/03/01 05:40:59;;;;;;;32.77;15.80;;;0.20;90.80;;;;;;5060653;28;20218;-67
2022/03/01 05:43:26;;;;;;;35.10;16.73;;;0.20;91.00;;;;;;5053748;28;20233;-67
2022/03/01 05:45:52;;;;;;;29.50;15.83;;;0.30;91.10;;;;;;5054025;28;20714;-67
2022/03/01 05:48:21;;;;;;;34.17;16.47;;;0.30;91.30;;;;;;5053695;28;20210;-68
2022/03/01 05:50:48;;;;;;;32.93;16.63;;;0.30;91.50;;;;;;5046842;28;20202;-66
2022/03/01 05:53:15;;;;;;;29.27;17.10;;;0.40;91.60;;;;;;5062218;28;20649;-67
2022/03/01 05:55:42;;;;;;;32.83;16.57;;;0.50;91.80;;;;;;5055989;28;20641;-67
2022/03/01 05:58:09;;;;;;;34.13;16.83;;;0.60;92.20;;;;;;5053179;28;20209;-67
2022/03/01 06:00:36;;;;;;;32.00;16.10;;;0.60;91.80;;;;;;5052325;28;20218;-67
2022/03/01 06:03:03;;;;;;;30.37;16.60;;;0.80;91.80;;;;;;5059990;28;20304;-67
2022/03/01 06:05:32;;;;;;;29.20;15.20;;;0.90;92.00;;;;;;5045062;28;20202;-67
2022/03/01 06:07:59;;;;;;;28.57;15.80;;;1.20;91.80;;;;;;5056362;28;20274;-67
2022/03/01 06:10:27;;;;;;;28.63;15.80;;;1.50;91.30;;;;;;5056292;28;20297;-67
2022/03/01 06:12:54;;;;;;;32.47;15.63;;;1.60;90.40;;;;;;5049092;28;20209;-67
2022/03/01 06:15:21;;;;;;;31.47;16.73;;;1.70;89.60;;;;;;5053358;28;20313;-67
2022/03/01 06:17:48;;;;;;;30.63;15.70;;;1.60;89.00;;;;;;5053126;28;20305;-67
2022/03/01 06:20:17;;;;;;;31.27;15.73;;;1.60;88.60;;;;;;5039021;28;20300;-68
2022/03/01 06:22:45;;;;;;;29.37;15.83;;;1.60;88.40;;;;;;5048750;28;20217;-68
2022/03/01 06:25:12;;;;;;;27.80;12.97;;;1.50;87.60;;;;;;5053222;28;20296;-66
2022/03/01 06:27:40;;;;;;;33.50;13.37;;;1.50;87.40;;;;;;5063258;28;20296;-67
2022/03/01 06:30:09;;;;;;;24.53;12.87;;;1.50;87.30;;;;;;5057787;28;20293;-67
2022/03/01 06:32:36;;;;;;;25.87;12.43;;;1.60;87.40;;;;;;5064880;28;20210;-67
2022/03/01 06:35:04;;;;;;;26.10;12.60;;;1.60;86.70;;;;;;5064834;28;20213;-67
2022/03/01 06:37:31;;;;;;;30.83;13.50;;;1.60;86.10;;;;;;5056821;28;20255;-68
2022/03/01 06:40:00;;;;;;;26.47;13.37;;;1.70;86.00;;;;;;5051947;28;20666;-67
2022/03/01 06:42:27;;;;;;;23.57;12.40;;;1.60;85.70;;;;;;5052772;28;20523;-66
2022/03/01 06:44:54;;;;;;;25.53;12.63;;;1.60;85.30;;;;;;5052817;28;20237;-67
2022/03/01 06:47:21;;;;;;;24.07;12.20;;;1.60;85.00;;;;;;5052487;28;20718;-67
2022/03/01 06:49:47;;;;;;;20.63;11.90;;;1.60;84.80;;;;;;5051852;28;20202;-70
2022/03/01 06:52:14;;;;;;;22.67;12.17;;;1.70;84.60;;;;;;5046560;28;20308;-68
2022/03/01 06:54:41;;;;;;;21.03;11.03;;;1.80;84.40;;;;;;5054441;28;20255;-68
2022/03/01 06:57:09;;;;;;;23.23;10.50;;;2.10;84.90;;;;;;5063731;28;20245;-68
2022/03/01 06:59:36;;;;;;;17.37;9.80;;;2.30;83.20;;;;;;5047218;28;20293;-68
2022/03/01 07:02:04;;;;;;;14.43;10.03;;;2.40;81.60;;;;;;5052247;28;20236;-68
2022/03/01 07:04:31;;;;;;;16.47;9.90;;;2.40;80.50;;;;;;5052283;28;20626;-66
2022/03/01 07:06:57;;;;;;;19.57;9.90;;;2.40;79.70;;;;;;5047102;28;20206;-66
2022/03/01 07:09:24;;;;;;;18.50;9.17;;;2.50;78.50;;;;;;5058495;28;20297;-67
2022/03/01 07:11:51;;;;;;;16.77;9.57;;;2.60;77.80;;;;;;5054052;28;20665;-67
2022/03/01 07:14:20;;;;;;;17.77;9.30;;;2.60;77.20;;;;;;5050673;28;20213;-67
2022/03/01 07:16:46;;;;;;;15.70;9.33;;;2.80;77.10;;;;;;5055905;28;20244;-67
2022/03/01 07:19:13;;;;;;;15.70;8.80;;;3.10;76.30;;;;;;5059953;28;20265;-67
2022/03/01 07:21:40;;;;;;;17.33;8.40;;;3.40;75.10;;;;;;5046316;28;20222;-67
2022/03/01 07:24:07;;;;;;;19.17;9.40;;;3.70;73.00;;;;;;5064382;28;20252;-70
2022/03/01 07:26:34;;;;;;;18.70;10.37;;;3.70;71.20;;;;;;5045033;28;20222;-71
2022/03/01 07:29:01;;;;;;;16.47;8.83;;;3.80;69.70;;;;;;5051436;28;20279;-69
2022/03/01 07:31:30;;;;;;;17.83;9.97;;;4.00;69.60;;;;;;5045719;28;20580;-72
2022/03/01 07:33:57;;;;;;;24.80;10.13;;;4.30;68.80;;;;;;5052871;28;20629;-70
2022/03/01 07:36:24;;;;;;;20.17;10.40;;;4.40;67.10;;;;;;5040097;28;20249;-70
2022/03/01 07:38:51;;;;;;;18.40;9.90;;;4.50;66.30;;;;;;5057403;28;20231;-71
2022/03/01 07:41:18;;;;;;;19.10;9.83;;;4.50;65.70;;;;;;5062874;28;20220;-69
2022/03/01 07:43:44;;;;;;;24.67;11.33;;;4.60;65.30;;;;;;5058092;28;20621;-70
2022/03/01 07:46:13;;;;;;;22.83;10.77;;;4.60;65.20;;;;;;5049978;28;20217;-70
2022/03/01 07:48:42;;;;;;;20.67;10.47;;;4.70;65.10;;;;;;5060375;28;20658;-70
2022/03/01 07:51:09;;;;;;;22.07;11.10;;;4.80;64.80;;;;;;5050981;28;20578;-70
2022/03/01 07:53:37;;;;;;;23.63;12.17;;;4.80;64.00;;;;;;5047788;28;20206;-70
2022/03/01 07:56:05;;;;;;;19.73;10.47;;;4.90;63.80;;;;;;5053310;28;20610;-70
2022/03/01 07:58:32;;;;;;;22.80;10.53;;;5.00;63.40;;;;;;5057280;28;20233;-70
2022/03/01 08:01:00;;;;;;;23.23;11.33;;;5.10;62.70;;;;;;5050370;28;20229;-71
2022/03/01 08:03:27;;;;;;;26.00;11.57;;;5.20;62.00;;;;;;5048017;28;20271;-70
2022/03/01 08:05:55;;;;;;;25.50;12.30;;;5.30;61.50;;;;;;5059209;28;20281;-70
2022/03/01 08:08:22;;;;;;;21.03;10.57;;;5.40;60.90;;;;;;5051096;28;20210;-70
2022/03/01 08:10:49;;;;;;;21.70;10.53;;;5.60;60.90;;;;;;5047964;28;20244;-70
2022/03/01 08:13:17;;;;;;;27.00;11.70;;;5.70;60.20;;;;;;5045688;28;20206;-69
2022/03/01 08:15:44;;;;;;;19.23;10.87;;;5.80;59.90;;;;;;5050463;28;20697;-71
2022/03/01 08:18:11;;;;;;;20.63;9.27;;;6.00;59.60;;;;;;5047707;28;20228;-71
2022/03/01 08:20:38;;;;;;;15.57;9.00;;;6.10;59.40;;;;;;5045749;28;20225;-71
2022/03/01 08:23:07;;;;;;;16.70;8.70;;;6.20;58.60;;;;;;5051593;28;20254;-71
2022/03/01 08:25:34;;;;;;;18.27;9.53;;;6.20;58.20;;;;;;5044018;28;20241;-71
2022/03/01 08:28:02;;;;;;;14.47;8.70;;;6.20;57.80;;;;;;5051921;28;20421;-72
2022/03/01 08:30:30;;;;;;;16.07;8.33;;;6.30;57.80;;;;;;5054046;28;20298;-73
2022/03/01 08:32:57;;;;;;;18.23;8.70;;;6.30;57.40;;;;;;5052927;28;20207;-74
2022/03/01 08:35:24;;;;;;;13.37;7.80;;;6.30;57.30;;;;;;5062763;28;20306;-74
2022/03/01 08:37:52;;;;;;;13.17;7.90;;;6.20;57.00;;;;;;5046444;28;20236;-72
2022/03/01 08:40:22;;;;;;;14.53;7.63;;;6.30;57.20;;;;;;5045521;28;20212;-71
2022/03/01 08:42:49;;;;;;;15.47;7.93;;;6.30;57.30;;;;;;5050758;28;20244;-72
2022/03/01 08:45:16;;;;;;;12.97;8.20;;;6.40;57.10;;;;;;5053023;28;20267;-69
2022/03/01 08:47:43;;;;;;;17.80;9.10;;;6.50;57.00;;;;;;5050745;28;20289;-71
2022/03/01 08:50:11;;;;;;;18.57;10.33;;;6.70;57.00;;;;;;5054944;28;20240;-73
2022/03/01 08:52:39;;;;;;;17.10;8.97;;;6.80;57.00;;;;;;5055021;28;20683;-71
2022/03/01 08:55:08;;;;;;;16.97;9.63;;;7.00;56.70;;;;;;5051696;28;20248;-70
2022/03/01 08:57:37;;;;;;;20.57;10.67;;;7.00;56.30;;;;;;5052656;28;20237;-70
2022/03/01 09:00:06;;;;;;;15.13;9.20;;;7.10;56.50;;;;;;5050404;28;20220;-69
2022/03/01 09:02:33;;;;;;;16.80;9.23;;;7.30;56.10;;;;;;5059132;28;20276;-71
2022/03/01 09:05:00;;;;;;;19.03;9.47;;;7.50;55.70;;;;;;5057073;28;20288;-71
2022/03/01 09:07:27;;;;;;;18.87;9.23;;;7.60;55.30;;;;;;5057380;28;20274;-71
2022/03/01 09:09:54;;;;;;;16.53;8.87;;;7.70;54.20;;;;;;5062559;28;20198;-75
2022/03/01 09:12:22;;;;;;;20.30;10.33;;;7.90;54.50;;;;;;5069104;28;20205;-71
2022/03/01 09:14:50;;;;;;;23.40;10.53;;;8.20;56.00;;;;;;5058462;28;20252;-72
2022/03/01 09:17:17;;;;;;;20.10;10.57;;;8.50;55.60;;;;;;5060732;28;20240;-71
2022/03/01 09:19:44;;;;;;;18.83;10.83;;;9.90;59.30;;;;;;5056027;28;20758;-71
2022/03/01 09:22:10;;;;;;;16.77;9.83;;;12.80;55.80;;;;;;5064380;28;20321;-74
2022/03/01 09:24:39;;;;;;;17.63;9.00;;;16.00;43.60;;;;;;5056899;28;20705;-74
2022/03/01 09:27:06;;;;;;;14.27;8.43;;;18.60;38.60;;;;;;5056011;28;20678;-74
2022/03/01 09:29:33;;;;;;;24.27;8.90;;;20.50;34.20;;;;;;5062129;28;20230;-72
2022/03/01 09:32:01;;;;;;;12.15;6.47;;;22.20;32.60;;;;;;5049286;28;20296;-73
2022/03/01 09:34:29;;;;;;;10.27;6.57;;;23.40;29.70;;;;;;5061594;28;20253;-72
2022/03/01 09:36:56;;;;;;;9.82;6.90;;;24.10;28.50;;;;;;5052497;28;20202;-74
2022/03/01 09:39:23;;;;;;;9.90;6.78;;;24.70;27.50;;;;;;5055516;28;20213;-73
2022/03/01 09:41:51;;;;;;;12.65;8.27;;;25.30;27.10;;;;;;5050267;28;20233;-75
2022/03/01 09:44:19;;;;;;;12.98;9.25;;;25.80;26.10;;;;;;5061293;28;20320;-73
2022/03/01 09:46:46;;;;;;;13.02;7.20;;;26.90;26.10;;;;;;5053358;28;20202;-73
2022/03/01 09:49:16;;;;;;;12.02;6.55;;;27.80;25.30;;;;;;5052094;28;20222;-74
2022/03/01 09:51:43;;;;;;;8.48;6.18;;;28.80;24.60;;;;;;5054434;28;20198;-74
2022/03/01 09:54:10;;;;;;;9.60;6.25;;;30.10;23.80;;;;;;5058611;28;20201;-73
2022/03/01 09:56:37;;;;;;;9.30;6.75;;;31.00;22.70;;;;;;5055433;28;20205;-74
2022/03/01 09:59:04;;;;;;;8.45;6.05;;;31.60;22.20;;;;;;5046554;28;20207;-73
2022/03/01 10:01:31;;;;;;;9.32;6.10;;;31.90;22.00;;;;;;5047396;28;20290;-74
2022/03/01 10:04:08;;;;;;;7.90;5.85;;;32.40;21.30;;;;;;5054023;28;20209;-74
2022/03/01 10:06:43;;;;;;;7.97;6.20;;;32.00;20.70;;;;;;5056157;28;20241;-74
2022/03/01 10:09:15;;;;;;;9.50;6.20;;;32.40;21.10;;;;;;5053974;28;20658;-75
2022/03/01 10:11:42;;;;;;;9.00;6.57;;;32.70;20.60;;;;;;5054835;28;20198;-74
2022/03/01 10:14:10;;;;;;;7.55;6.45;;;32.90;20.40;;;;;;5052635;28;20713;-74
2022/03/01 10:16:38;;;;;;;8.40;6.50;;;33.00;20.40;;;;;;5057915;28;20612;-74
2022/03/01 10:19:11;;;;;;;7.95;6.00;;;33.30;20.40;;;;;;5056630;28;20269;-72
2022/03/01 10:21:37;;;;;;;8.43;6.32;;;33.50;19.90;;;;;;5052313;28;20278;-72
2022/03/01 10:24:08;;;;;;;8.75;6.28;;;33.40;19.50;;;;;;5050119;28;20217;-72
2022/03/01 10:26:37;;;;;;;9.75;5.90;;;33.00;19.70;;;;;;5048817;28;20210;-70
2022/03/01 10:29:06;;;;;;;9.10;6.00;;;32.40;19.60;;;;;;5062663;28;20705;-72
2022/03/01 10:31:35;;;;;;;7.32;5.55;;;32.20;19.90;;;;;;5050926;28;20206;-73
2022/03/01 10:34:03;;;;;;;7.68;4.93;;;32.40;20.00;;;;;;5050372;28;20210;-71
2022/03/01 10:36:32;;;;;;;7.47;5.57;;;33.10;19.90;;;;;;5053153;28;20683;-72
2022/03/01 10:39:00;;;;;;;7.43;5.03;;;34.60;19.40;;;;;;5052533;28;20260;-72
2022/03/01 10:41:30;;;;;;;7.25;5.22;;;35.60;18.80;;;;;;5052101;28;20316;-72
2022/03/01 10:44:00;;;;;;;8.50;5.22;;;36.10;18.70;;;;;;5047807;28;20682;-72
2022/03/01 10:46:27;;;;;;;5.68;4.82;;;36.70;18.80;;;;;;5047122;28;20758;-71
2022/03/01 10:49:05;;;;;;;7.20;4.78;;;37.40;18.20;;;;;;5047351;28;20675;-73
2022/03/01 10:51:32;;;;;;;6.95;4.22;;;37.60;17.70;;;;;;5049859;28;20280;-74
2022/03/01 10:54:00;;;;;;;5.03;3.75;;;36.70;17.50;;;;;;5050692;28;20210;-74
2022/03/01 10:56:37;;;;;;;5.82;4.00;;;36.00;17.60;;;;;;5054071;28;20214;-78
2022/03/01 10:59:06;;;;;;;4.40;3.75;;;35.80;17.80;;;;;;5052697;28;20267;-76
2022/03/01 11:01:33;;;;;;;5.90;4.22;;;35.90;17.60;;;;;;5051188;28;20305;-75
2022/03/01 11:04:00;;;;;;;6.55;4.65;;;35.20;17.60;;;;;;5056076;28;20647;-75
2022/03/01 11:06:27;;;;;;;5.90;4.43;;;35.00;18.10;;;;;;5057734;28;20239;-77
2022/03/01 11:08:56;;;;;;;5.63;4.15;;;35.50;17.80;;;;;;5051416;28;20233;-76
2022/03/01 11:11:26;;;;;;;7.20;3.53;;;35.70;17.50;;;;;;5056275;28;20205;-74
2022/03/01 11:13:56;;;;;;;5.55;3.92;;;35.20;17.20;;;;;;5060828;28;20209;-74
2022/03/01 11:16:41;;;;;;;5.35;3.88;;;34.50;17.60;;;;;;5052236;28;20583;-77
2022/03/01 11:19:47;;;;;;;4.95;4.28;;;35.00;17.90;;;;;;5061733;28;20209;-76
2022/03/01 11:22:25;;;;;;;6.22;3.50;;;35.50;17.70;;;;;;5031617;28;20238;-74
2022/03/01 11:24:52;;;;;;;5.45;3.90;;;35.90;17.30;;;;;;5051570;28;20302;-75
2022/03/01 11:27:21;;;;;;;5.57;3.80;;;35.90;17.30;;;;;;5061766;28;20236;-75
2022/03/01 11:29:50;;;;;;;4.05;3.53;;;36.70;17.30;;;;;;5057890;28;20577;-76
2022/03/01 11:32:18;;;;;;;6.05;3.22;;;37.10;16.70;;;;;;5067004;28;20194;-75
2022/03/01 11:34:45;;;;;;;5.30;3.33;;;36.60;16.30;;;;;;5066410;28;20241;-75
2022/03/01 11:37:15;;;;;;;6.15;3.20;;;36.00;17.10;;;;;;5054946;28;20237;-74
2022/03/01 11:39:42;;;;;;;4.60;3.72;;;36.20;16.80;;;;;;5056293;28;20206;-75
2022/03/01 11:42:14;;;;;;;4.65;3.58;;;35.60;16.70;;;;;;5062670;28;20201;-76
2022/03/01 11:44:45;;;;;;;4.38;3.40;;;34.80;16.80;;;;;;5066238;28;20248;-77
2022/03/01 11:47:25;;;;;;;8.13;4.00;;;33.60;17.70;;;;;;5055546;28;20220;-75
2022/03/01 11:49:52;;;;;;;5.45;3.95;;;33.80;17.90;;;;;;5054992;28;20224;-75
2022/03/01 11:52:21;;;;;;;5.82;3.65;;;35.30;17.30;;;;;;5054052;28;20206;-75
2022/03/01 11:54:49;;;;;;;7.82;3.72;;;37.00;17.00;;;;;;5059376;28;20614;-75
2022/03/01 11:57:23;;;;;;;7.72;3.70;;;38.50;16.70;;;;;;5053537;28;20615;-77
2022/03/01 11:59:51;;;;;;;4.68;4.18;;;39.70;16.40;;;;;;5069475;28;20278;-77
2022/03/01 12:02:20;;;;;;;5.63;4.28;;;40.30;15.90;;;;;;5054209;28;20225;-76
2022/03/01 12:04:48;;;;;;;8.00;3.72;;;40.60;16.20;;;;;;5054380;28;20205;-75
2022/03/01 12:07:20;;;;;;;4.90;3.75;;;40.30;15.80;;;;;;5046971;28;20618;-75
2022/03/01 12:09:58;;;;;;;7.50;4.22;;;39.10;16.30;;;;;;5057468;28;20571;-76
2022/03/01 12:12:34;;;;;;;5.82;3.70;;;39.30;16.50;;;;;;5056210;28;20212;-74
2022/03/01 12:15:02;;;;;;;5.70;4.03;;;40.50;16.30;;;;;;5063293;28;20217;-73
2022/03/01 12:17:41;;;;;;;6.15;3.28;;;41.10;16.30;;;;;;5058317;28;20259;-74
2022/03/01 12:20:11;;;;;;;6.72;3.60;;;41.70;15.60;;;;;;5058253;28;20209;-75
2022/03/01 12:22:49;;;;;;;4.82;3.65;;;41.90;15.70;;;;;;5052933;28;20220;-75
2022/03/01 12:25:16;;;;;;;7.32;4.10;;;42.60;15.50;;;;;;5055378;28;20240;-74
2022/03/01 12:27:44;;;;;;;7.28;3.88;;;43.30;15.40;;;;;;5048492;28;20241;-74
2022/03/01 12:30:12;;;;;;;7.93;4.18;;;44.10;15.10;;;;;;5055564;28;20217;-76
2022/03/01 12:32:41;;;;;;;4.95;3.78;;;45.10;15.00;;;;;;5046084;28;20251;-77
2022/03/01 12:35:08;;;;;;;4.25;3.55;;;45.60;14.80;;;;;;5059777;28;20707;-76
2022/03/01 12:37:35;;;;;;;4.25;3.65;;;45.40;14.70;;;;;;5056226;28;20200;-76
2022/03/01 12:40:02;;;;;;;5.28;3.70;;;44.80;14.50;;;;;;5053783;28;20672;-75
2022/03/01 12:42:31;;;;;;;4.13;3.60;;;43.70;14.50;;;;;;5058235;28;20228;-74
2022/03/01 12:44:57;;;;;;;4.40;3.60;;;42.60;14.90;;;;;;5060937;28;20320;-75